createdAt,value
2022-08-09T00:00:00.505Z,61.22
2022-08-09T00:02:28.566Z,60.93
2022-08-09T00:05:03.191Z,60.54
2022-08-09T00:07:44.878Z,61.45
2022-08-09T00:10:18.034Z,60.38
2022-08-09T00:12:52.477Z,60.24
2022-08-09T00:15:20.382Z,60.92
2022-08-09T00:18:05.840Z,61.11
2022-08-09T00:20:42.135Z,61.20
2022-08-09T00:23:55.530Z,61.40
2022-08-09T00:26:05.112Z,59.99
2022-08-09T00:28:34.394Z,60.85
2022-08-09T00:31:55.820Z,60.05
2022-08-09T00:33:51.966Z,60.25
2022-08-09T00:36:19.992Z,60.41
2022-08-09T00:38:50.693Z,60.79
2022-08-09T00:44:18.734Z,60.13
2022-08-09T00:44:25.327Z,61.03
2022-08-09T00:46:57.658Z,61.10
2022-08-09T00:49:36.833Z,60.35
2022-08-09T00:52:15.933Z,61.27
2022-08-09T00:54:45.587Z,61.40
2022-08-09T00:57:12.813Z,60.98
2022-08-09T00:59:46.947Z,60.52
2022-08-09T01:02:22.205Z,60.54
2022-08-09T01:05:22.011Z,60.84
2022-08-09T01:08:04.743Z,60.97
2022-08-09T01:10:38.768Z,60.53
2022-08-09T01:13:31.063Z,60.75
2022-08-09T01:16:12.896Z,60.72
2022-08-09T01:18:47.594Z,61.12
2022-08-09T01:21:51.083Z,61.29
2022-08-09T01:24:26.369Z,61.56
2022-08-09T01:26:55.006Z,61.09
2022-08-09T01:29:40.946Z,61.11
2022-08-09T01:32:30.906Z,61.07
2022-08-09T01:35:06.990Z,61.56
2022-08-09T01:38:08.209Z,61.38
2022-08-09T01:40:35.681Z,61.56
2022-08-09T01:43:04.961Z,61.52
2022-08-09T01:45:35.516Z,61.94
2022-08-09T01:48:14.209Z,61.81
2022-08-09T01:50:48.378Z,62.40
2022-08-09T01:53:19.409Z,62.67
2022-08-09T01:55:48.720Z,63.22
2022-08-09T01:58:16.604Z,63.14
2022-08-09T02:00:50.672Z,63.54
2022-08-09T02:03:19.555Z,63.45
2022-08-09T02:06:03.861Z,63.56
2022-08-09T02:08:58.559Z,63.19
2022-08-09T02:11:40.300Z,63.28
2022-08-09T02:14:15.072Z,63.76
2022-08-09T02:16:59.912Z,63.41
2022-08-09T02:19:43.268Z,63.71
2022-08-09T02:22:19.097Z,64.04
2022-08-09T02:24:59.120Z,64.62
2022-08-09T02:27:43.508Z,65.08
2022-08-09T02:30:16.276Z,65.42
2022-08-09T02:32:47.588Z,65.24
2022-08-09T02:35:46.356Z,65.11
2022-08-09T02:38:10.825Z,65.34
2022-08-09T02:40:49.334Z,66.34
2022-08-09T02:43:19.539Z,65.67
2022-08-09T02:45:52.164Z,65.93
2022-08-09T02:48:30.705Z,65.96
2022-08-09T02:51:02.587Z,66.68
2022-08-09T02:53:37.068Z,67.20
2022-08-09T02:56:06.277Z,66.31
2022-08-09T02:58:37.960Z,67.28
2022-08-09T03:01:10.974Z,67.71
2022-08-09T03:04:17.660Z,67.81
2022-08-09T03:06:29.331Z,68.21
2022-08-09T03:08:57.694Z,68.60
2022-08-09T03:12:06.555Z,68.78
2022-08-09T03:14:13.630Z,69.15
2022-08-09T03:16:47.530Z,69.66
2022-08-09T03:19:52.461Z,69.44
2022-08-09T03:22:12.067Z,69.85
2022-08-09T03:24:52.126Z,70.22
2022-08-09T03:27:22.232Z,69.80
2022-08-09T03:30:00.947Z,69.35
2022-08-09T03:32:31.165Z,69.22
2022-08-09T03:34:59.854Z,69.19
2022-08-09T03:37:56.180Z,69.61
2022-08-09T03:40:17.897Z,69.56
2022-08-09T03:42:45.719Z,69.31
2022-08-09T03:45:13.468Z,68.87
2022-08-09T03:47:42.078Z,69.26
2022-08-09T03:50:14.648Z,68.69
2022-08-09T03:52:56.239Z,69.57
2022-08-09T03:55:24.731Z,69.01
2022-08-09T03:58:06.684Z,70.23
2022-08-09T04:00:42.340Z,69.70
2022-08-09T04:03:11.878Z,69.81
2022-08-09T04:05:46.802Z,70.37
2022-08-09T04:08:13.493Z,70.98
2022-08-09T04:10:40.285Z,71.38
2022-08-09T04:13:11.508Z,71.56
2022-08-09T04:16:18.797Z,71.93
2022-08-09T04:18:25.859Z,72.40
2022-08-09T04:20:55.554Z,71.89
2022-08-09T04:23:24.999Z,72.60
2022-08-09T04:25:54.238Z,71.78
2022-08-09T04:28:32.887Z,71.18
2022-08-09T04:31:01.028Z,71.23
2022-08-09T04:33:47.349Z,70.51
2022-08-09T04:36:24.617Z,70.96
2022-08-09T04:38:51.380Z,69.88
2022-08-09T04:41:19.051Z,70.10
2022-08-09T04:44:05.104Z,70.38
2022-08-09T04:46:37.986Z,69.85
2022-08-09T04:49:30.296Z,69.24
2022-08-09T04:52:09.738Z,70.89
2022-08-09T04:54:37.140Z,71.48
2022-08-09T04:57:04.416Z,71.22
2022-08-09T04:59:31.495Z,71.38
2022-08-09T05:01:58.824Z,69.78
2022-08-09T05:04:30.745Z,68.65
2022-08-09T05:06:58.398Z,68.32
2022-08-09T05:09:25.408Z,69.37
2022-08-09T05:12:09.613Z,67.35
2022-08-09T05:14:37.968Z,68.37
2022-08-09T05:18:36.729Z,67.05
2022-08-09T05:19:57.065Z,66.37
2022-08-09T05:22:36.316Z,66.31
2022-08-09T05:25:15.121Z,65.44
2022-08-09T05:27:46.548Z,66.18
2022-08-09T05:30:17.648Z,66.17
2022-08-09T05:32:50.800Z,64.52
2022-08-09T05:35:22.024Z,65.35
2022-08-09T05:37:50.580Z,64.07
2022-08-09T05:40:18.245Z,63.52
2022-08-09T05:42:45.214Z,63.77
2022-08-09T05:45:14.236Z,63.59
2022-08-09T05:47:51.727Z,63.40
2022-08-09T05:50:30.508Z,63.91
2022-08-09T05:53:06.202Z,62.00
2022-08-09T05:55:38.599Z,60.90
2022-08-09T05:58:07.144Z,60.74
2022-08-09T06:00:34.023Z,61.20
2022-08-09T06:03:03.389Z,60.49
2022-08-09T06:05:50.549Z,60.65
2022-08-09T06:08:24.573Z,61.02
2022-08-09T06:10:56.236Z,60.34
2022-08-09T06:13:28.342Z,60.60
2022-08-09T06:16:00.343Z,59.18
2022-08-09T06:18:28.871Z,58.83
2022-08-09T06:20:57.713Z,59.58
2022-08-09T06:23:58.537Z,58.67
2022-08-09T06:26:20.999Z,59.52
2022-08-09T06:29:00.728Z,58.64
2022-08-09T06:31:39.271Z,58.09
2022-08-09T06:34:19.015Z,58.61
2022-08-09T06:36:45.883Z,58.08
2022-08-09T06:39:13.640Z,57.96
2022-08-09T06:42:08.668Z,57.85
2022-08-09T06:44:28.000Z,57.81
2022-08-09T06:46:55.491Z,55.17
2022-08-09T06:49:44.884Z,55.73
2022-08-09T06:52:10.560Z,54.10
2022-08-09T06:54:38.944Z,53.67
2022-08-09T06:57:08.353Z,52.46
2022-08-09T07:00:51.426Z,52.59
2022-08-09T07:02:22.109Z,52.32
2022-08-09T07:04:56.204Z,52.27
2022-08-09T07:08:00.807Z,52.61
2022-08-09T07:10:22.484Z,53.05
2022-08-09T07:12:57.638Z,53.25
2022-08-09T07:16:36.539Z,52.06
2022-08-09T07:18:11.314Z,52.89
2022-08-09T07:20:43.484Z,52.68
2022-08-09T07:23:18.620Z,52.44
2022-08-09T07:25:47.349Z,52.93
2022-08-09T07:28:19.314Z,53.99
2022-08-09T07:30:54.914Z,52.03
2022-08-09T07:33:21.939Z,52.15
2022-08-09T07:35:53.515Z,51.65
2022-08-09T07:38:23.807Z,52.54
2022-08-09T07:41:11.837Z,51.78
2022-08-09T07:43:41.123Z,52.37
2022-08-09T07:46:17.266Z,51.64
2022-08-09T07:48:46.456Z,52.40
2022-08-09T07:52:06.086Z,50.79
2022-08-09T07:54:12.809Z,52.40
2022-08-09T07:56:48.631Z,51.65
2022-08-09T07:59:25.667Z,52.33
2022-08-09T08:02:05.486Z,52.31
2022-08-09T08:04:33.204Z,51.46
2022-08-09T08:07:09.293Z,50.58
2022-08-09T08:09:51.558Z,49.54
2022-08-09T08:12:27.545Z,50.23
2022-08-09T08:29:27.816Z,44.84
2022-08-09T09:27:02.847Z,37.46
2022-08-09T09:30:14.312Z,35.04
2022-08-09T09:32:34.262Z,35.22
2022-08-09T09:35:15.960Z,35.97
2022-08-09T09:37:45.861Z,35.71
2022-08-09T09:40:13.173Z,36.49
2022-08-09T09:42:42.996Z,35.85
2022-08-09T09:45:14.345Z,35.21
2022-08-09T09:47:56.412Z,35.23
2022-08-09T09:50:49.584Z,34.60
2022-08-09T09:53:43.814Z,33.19
2022-08-09T09:56:31.295Z,33.99
2022-08-09T09:58:58.058Z,34.28
2022-08-09T10:01:30.275Z,34.73
2022-08-09T10:04:09.683Z,32.98
2022-08-09T10:06:43.461Z,34.69
2022-08-09T10:09:22.532Z,33.88
2022-08-09T10:12:12.837Z,33.29
2022-08-09T10:14:49.450Z,36.14
2022-08-09T10:17:50.376Z,33.77
2022-08-09T10:20:27.316Z,33.36
2022-08-09T10:23:13.492Z,32.51
2022-08-09T10:26:07.795Z,33.08
2022-08-09T10:28:32.843Z,32.80
2022-08-09T10:37:45.329Z,31.81
2022-08-09T10:40:35.198Z,31.76
2022-08-09T10:43:00.812Z,31.79
2022-08-09T10:45:31.952Z,33.04
2022-08-09T10:48:31.309Z,31.78
2022-08-09T10:51:29.728Z,31.91
2022-08-09T10:54:04.979Z,31.80
2022-08-09T10:56:35.095Z,32.69
2022-08-09T10:59:30.978Z,31.56
2022-08-09T11:03:15.302Z,32.44
2022-08-09T11:05:24.886Z,31.10
2022-08-09T11:08:17.154Z,32.22
2022-08-09T11:10:47.038Z,30.93
2022-08-09T11:13:49.180Z,31.28
2022-08-09T11:16:37.426Z,30.86
2022-08-09T11:19:10.738Z,29.75
2022-08-09T11:21:57.485Z,29.80
2022-08-09T11:24:58.184Z,29.09
2022-08-09T11:28:05.637Z,29.20
2022-08-09T11:30:32.452Z,29.36
2022-08-09T11:33:05.813Z,28.13
2022-08-09T11:35:50.249Z,30.71
2022-08-09T11:38:32.619Z,31.06
2022-08-09T11:41:37.960Z,32.29
2022-08-09T11:44:05.660Z,31.55
2022-08-09T11:46:55.131Z,30.75
2022-08-09T11:50:55.787Z,30.91
2022-08-09T11:53:16.368Z,29.77
2022-08-09T11:55:52.270Z,29.66
2022-08-09T11:58:32.523Z,30.21
2022-08-09T12:01:37.336Z,29.41
2022-08-09T12:04:04.086Z,28.38
2022-08-09T12:06:35.140Z,29.25
2022-08-09T12:09:19.416Z,28.97
2022-08-09T12:12:05.879Z,29.68
2022-08-09T12:15:04.013Z,30.53
2022-08-09T12:17:34.258Z,31.27
2022-08-09T12:20:21.736Z,32.30
2022-08-09T12:22:55.760Z,32.37
2022-08-09T12:25:36.037Z,32.95
2022-08-09T12:29:15.615Z,32.31
2022-08-09T12:30:57.801Z,32.71
2022-08-09T12:33:35.421Z,34.75
2022-08-09T12:36:27.614Z,32.71
2022-08-09T12:38:59.849Z,31.13
2022-08-09T12:41:38.058Z,30.00
2022-08-09T12:44:09.728Z,30.64
2022-08-09T12:46:39.696Z,29.68
2022-08-09T12:49:08.769Z,29.42
2022-08-09T12:52:01.672Z,29.42
2022-08-09T12:54:23.888Z,28.45
2022-08-09T12:56:54.033Z,29.14
2022-08-09T12:59:23.677Z,28.74
2022-08-09T13:01:59.541Z,28.98
2022-08-09T13:04:36.198Z,30.04
2022-08-09T13:07:19.589Z,30.73
2022-08-09T13:09:56.003Z,31.65
2022-08-09T13:12:28.197Z,31.42
2022-08-09T13:15:05.016Z,32.33
2022-08-09T13:18:03.779Z,32.33
2022-08-09T13:20:37.912Z,32.56
2022-08-09T13:24:15.963Z,32.27
2022-08-09T13:26:49.941Z,31.97
2022-08-09T13:29:42.146Z,32.44
2022-08-09T13:32:13.879Z,32.30
2022-08-09T13:34:45.024Z,33.58
2022-08-09T13:37:13.221Z,34.30
2022-08-09T13:41:52.561Z,33.60
2022-08-09T13:42:46.859Z,33.95
2022-08-09T13:45:14.718Z,34.22
2022-08-09T13:47:51.208Z,33.46
2022-08-09T13:50:30.500Z,34.34
2022-08-09T13:52:58.382Z,33.20
2022-08-09T13:55:28.679Z,34.45
2022-08-09T13:57:58.524Z,35.12
2022-08-09T14:00:28.963Z,34.35
2022-08-09T14:05:58.644Z,31.70
2022-08-09T14:08:18.133Z,31.38
2022-08-09T14:10:50.314Z,32.04
2022-08-09T14:13:28.126Z,33.13
2022-08-09T14:16:13.878Z,33.09
2022-08-09T14:18:45.521Z,33.35
2022-08-09T14:21:18.641Z,34.37
2022-08-09T14:23:53.831Z,34.19
2022-08-09T14:26:33.704Z,34.84
2022-08-09T14:29:07.903Z,36.41
2022-08-09T14:31:53.638Z,35.94
2022-08-09T14:34:31.932Z,35.12
2022-08-09T14:37:08.221Z,35.30
2022-08-09T14:39:45.598Z,33.83
2022-08-09T14:42:30.898Z,33.99
2022-08-09T14:46:38.915Z,34.37
2022-08-09T14:47:57.821Z,35.43
2022-08-09T14:50:31.218Z,33.66
2022-08-09T14:54:03.784Z,33.44
2022-08-09T14:56:58.313Z,33.63
2022-08-09T14:59:39.575Z,32.16
2022-08-09T15:07:10.185Z,32.89
2022-08-09T15:10:04.609Z,34.28
2022-08-09T15:15:23.589Z,33.14
2022-08-09T15:17:53.212Z,32.35
2022-08-09T15:21:58.871Z,32.85
2022-08-09T15:24:02.619Z,32.36
2022-08-09T15:25:59.521Z,31.68
2022-08-09T15:28:33.065Z,31.56
2022-08-09T15:31:10.163Z,31.00
2022-08-09T15:34:17.249Z,31.22
2022-08-09T15:36:30.567Z,31.55
2022-08-09T15:39:00.882Z,30.20
2022-08-09T15:41:31.708Z,30.72
2022-08-09T15:44:02.848Z,30.42
2022-08-09T15:46:34.285Z,29.50
2022-08-09T15:49:22.113Z,31.13
2022-08-09T15:52:03.812Z,30.09
2022-08-09T15:54:48.983Z,30.34
2022-08-09T15:57:35.904Z,29.39
2022-08-09T16:00:14.576Z,29.07
2022-08-09T16:02:54.125Z,29.61
2022-08-09T16:09:57.838Z,28.79
2022-08-09T16:16:17.463Z,28.75
2022-08-09T16:36:50.438Z,28.50
2022-08-09T16:42:03.685Z,28.15
2022-08-09T16:44:32.331Z,28.71
2022-08-09T16:50:31.144Z,29.91
2022-08-09T16:53:01.921Z,31.79
2022-08-09T16:55:44.116Z,32.23
2022-08-09T16:58:35.718Z,32.94
2022-08-09T17:04:11.387Z,34.90
2022-08-09T17:08:41.641Z,35.05
2022-08-09T17:09:44.987Z,35.26
2022-08-09T17:12:15.364Z,35.77
2022-08-09T17:14:47.986Z,35.46
2022-08-09T17:17:26.496Z,36.48
2022-08-09T17:20:29.869Z,35.53
2022-08-09T17:22:49.776Z,35.50
2022-08-09T17:25:23.300Z,35.89
2022-08-09T17:27:54.388Z,36.42
2022-08-09T17:30:30.831Z,36.52
2022-08-09T17:33:05.141Z,37.01
2022-08-09T17:35:45.505Z,37.06
2022-08-09T17:38:30.650Z,37.05
2022-08-09T17:41:00.689Z,37.64
2022-08-09T17:43:33.892Z,37.40
2022-08-09T17:46:06.086Z,35.61
2022-08-09T17:48:39.851Z,34.04
2022-08-09T17:51:18.691Z,34.63
2022-08-09T17:53:53.552Z,36.30
2022-08-09T17:56:28.746Z,38.05
2022-08-09T17:58:58.052Z,38.17
2022-08-09T18:01:24.908Z,38.13
2022-08-09T18:03:54.505Z,37.41
2022-08-09T18:06:31.088Z,38.09
2022-08-09T18:09:03.097Z,38.85
2022-08-09T18:12:04.749Z,39.51
2022-08-09T18:14:22.946Z,40.28
2022-08-09T18:16:51.036Z,40.56
2022-08-09T18:20:55.134Z,40.68
2022-08-09T18:22:13.353Z,40.94
2022-08-09T18:24:45.772Z,41.23
2022-08-09T18:28:02.282Z,40.97
2022-08-09T18:30:40.975Z,41.72
2022-08-09T18:32:54.462Z,42.17
2022-08-09T18:35:58.140Z,42.08
2022-08-09T18:38:08.785Z,43.17
2022-08-09T18:40:35.655Z,43.48
2022-08-09T18:43:03.827Z,43.38
2022-08-09T18:46:49.011Z,43.42
2022-08-09T18:48:17.936Z,43.39
2022-08-09T18:50:44.866Z,43.60
2022-08-09T18:53:16.542Z,43.53
2022-08-09T18:55:45.452Z,43.74
2022-08-09T18:58:32.903Z,44.29
2022-08-09T19:01:00.305Z,44.58
2022-08-09T19:03:27.272Z,45.01
2022-08-09T19:06:03.672Z,44.79
2022-08-09T19:08:31.100Z,45.49
2022-08-09T19:10:57.715Z,45.85
2022-08-09T19:13:38.564Z,45.87
2022-08-09T19:16:11.387Z,46.16
2022-08-09T19:18:45.374Z,45.74
2022-08-09T19:21:12.780Z,45.47
2022-08-09T19:24:32.133Z,46.04
2022-08-09T19:26:34.783Z,46.56
2022-08-09T19:29:15.468Z,46.31
2022-08-09T19:31:51.226Z,46.20
2022-08-09T19:34:23.138Z,46.86
2022-08-09T19:36:54.999Z,47.32
2022-08-09T19:39:43.929Z,46.71
2022-08-09T19:42:15.269Z,47.19
2022-08-09T19:44:50.479Z,47.96
2022-08-09T19:47:22.860Z,47.94
2022-08-09T19:50:06.646Z,48.83
2022-08-09T19:52:37.544Z,48.01
2022-08-09T19:55:16.800Z,48.62
2022-08-09T19:57:46.314Z,49.18
2022-08-09T20:00:16.220Z,49.22
2022-08-09T20:04:11.491Z,49.06
2022-08-09T20:05:45.987Z,49.02
2022-08-09T20:08:16.134Z,49.16
2022-08-09T20:11:02.546Z,50.24
2022-08-09T20:13:36.790Z,50.38
2022-08-09T20:16:35.773Z,50.63
2022-08-09T20:19:41.851Z,50.63
2022-08-09T20:21:54.964Z,51.38
2022-08-09T20:24:31.849Z,51.25
2022-08-09T20:27:01.178Z,51.65
2022-08-09T20:29:36.943Z,51.96
2022-08-09T20:32:33.021Z,51.62
2022-08-09T20:34:53.949Z,51.76
2022-08-09T20:37:21.582Z,51.65
2022-08-09T20:40:16.499Z,52.06
2022-08-09T20:42:37.715Z,52.22
2022-08-09T20:45:56.713Z,52.00
2022-08-09T20:47:52.507Z,51.69
2022-08-09T20:50:47.585Z,51.97
2022-08-09T20:53:35.042Z,52.67
2022-08-09T20:56:02.524Z,52.97
2022-08-09T20:58:32.214Z,52.93
2022-08-09T21:01:14.063Z,53.72
2022-08-09T21:04:33.249Z,53.86
2022-08-09T21:06:35.145Z,54.15
2022-08-09T21:09:02.734Z,54.72
2022-08-09T21:14:16.900Z,54.29
2022-08-09T21:16:45.752Z,54.87
2022-08-09T21:20:16.104Z,55.16
2022-08-09T21:22:00.151Z,56.00
2022-08-09T21:24:32.584Z,56.04
2022-08-09T21:27:50.342Z,56.47
2022-08-09T21:29:49.374Z,56.71
2022-08-09T21:32:18.735Z,57.10
2022-08-09T21:34:49.173Z,57.31
2022-08-09T21:37:18.335Z,57.82
2022-08-09T21:39:45.454Z,57.73
2022-08-09T21:42:17.109Z,57.89
2022-08-09T21:44:44.417Z,57.72
2022-08-09T21:47:14.174Z,58.73
2022-08-09T21:49:44.781Z,59.05
2022-08-09T21:52:16.723Z,59.08
2022-08-09T21:54:59.370Z,59.34
2022-08-09T21:57:38.712Z,59.70
2022-08-09T22:00:38.170Z,59.88
2022-08-09T22:03:12.619Z,60.48
2022-08-09T22:05:46.549Z,60.72
2022-08-09T22:08:18.309Z,61.29
2022-08-09T22:11:50.355Z,61.34
2022-08-09T22:13:35.761Z,61.24
2022-08-09T22:16:09.037Z,62.03
2022-08-09T22:18:53.306Z,62.35
2022-08-09T22:21:24.865Z,62.09
2022-08-09T22:24:01.421Z,62.43
2022-08-09T22:26:34.778Z,62.10
2022-08-09T22:29:09.236Z,62.11
2022-08-09T22:31:38.133Z,62.57
2022-08-09T22:34:14.685Z,63.31
2022-08-09T22:36:45.991Z,63.87
2022-08-09T22:39:46.689Z,63.53
2022-08-09T22:42:02.657Z,63.79
2022-08-09T22:44:32.723Z,63.99
2022-08-09T22:48:15.361Z,64.17
2022-08-09T22:49:47.404Z,64.31
2022-08-09T22:52:19.619Z,65.18
2022-08-09T22:54:47.498Z,65.62
2022-08-09T22:57:14.780Z,65.61
2022-08-09T22:59:57.878Z,66.12
2022-08-09T23:02:27.300Z,66.50
2022-08-09T23:04:54.829Z,66.66
2022-08-09T23:08:22.826Z,66.78
2022-08-09T23:10:31.052Z,67.26
2022-08-09T23:12:58.872Z,67.88
2022-08-09T23:15:26.516Z,68.37
2022-08-09T23:17:53.317Z,68.35
2022-08-09T23:20:20.031Z,69.38
2022-08-09T23:22:46.794Z,69.38
2022-08-09T23:25:13.663Z,69.41
2022-08-09T23:28:14.838Z,69.72
2022-08-09T23:30:28.118Z,69.74
2022-08-09T23:32:54.769Z,69.77
2022-08-09T23:35:21.493Z,70.09
2022-08-09T23:37:48.190Z,70.76
2022-08-09T23:40:17.152Z,71.14
2022-08-09T23:42:43.967Z,71.42
2022-08-09T23:45:11.244Z,71.98
2022-08-09T23:47:58.007Z,72.10
2022-08-09T23:50:24.884Z,71.96
2022-08-09T23:52:51.583Z,73.24
2022-08-09T23:55:19.160Z,73.41
2022-08-09T23:57:56.868Z,73.94
